Time;durP1;ratioP1;P1;durP2;ratioP2;P2;SDS_P1;SDS_P2;PMS_P1;PMS_P2;Temp;Humidity;BMP_temperature;BMP_pressure;BME280_temperature;BME280_humidity;BME280_pressure;Samples;Min_cycle;Max_cycle;Signal;HPM_P1;HPM_P2
2021/03/03 00:01:30;;;;;;;17.17;11.38;;;7.10;91.90;;;;;;4847617;29;20236;-77
2021/03/03 00:03:57;;;;;;;15.20;9.95;;;7.00;92.50;;;;;;4857013;29;20257;-80
2021/03/03 00:06:23;;;;;;;13.95;12.50;;;7.00;92.50;;;;;;4848975;29;20284;-78
2021/03/03 00:08:50;;;;;;;15.25;9.75;;;6.90;92.70;;;;;;4862198;29;20387;-80
2021/03/03 00:11:16;;;;;;;17.33;11.00;;;6.90;92.30;;;;;;4860957;29;20227;-80
2021/03/03 00:13:43;;;;;;;14.63;10.52;;;6.80;92.30;;;;;;4862249;29;20203;-81
2021/03/03 00:16:09;;;;;;;17.25;10.82;;;6.70;92.90;;;;;;4848714;29;20240;-77
2021/03/03 00:18:36;;;;;;;12.80;9.02;;;6.60;92.60;;;;;;4863463;29;20706;-81
2021/03/03 00:21:02;;;;;;;14.70;10.57;;;6.60;93.30;;;;;;4848234;29;20306;-79
2021/03/03 00:23:28;;;;;;;22.58;10.95;;;6.60;92.30;;;;;;4858435;29;20188;-78
2021/03/03 00:25:55;;;;;;;14.38;10.85;;;6.50;92.90;;;;;;4846506;29;20234;-82
2021/03/03 00:28:21;;;;;;;13.55;10.43;;;6.40;92.70;;;;;;4847148;29;20663;-81
2021/03/03 00:30:48;;;;;;;18.00;10.13;;;6.40;93.50;;;;;;4861030;29;20224;-80
2021/03/03 00:33:14;;;;;;;14.65;9.75;;;6.40;93.50;;;;;;4862735;29;20227;-81
2021/03/03 00:35:41;;;;;;;16.50;10.93;;;6.30;94.00;;;;;;4858381;29;20263;-81
2021/03/03 00:38:07;;;;;;;17.27;11.13;;;6.30;93.50;;;;;;4868437;29;20223;-78
2021/03/03 00:40:33;;;;;;;14.80;10.15;;;6.30;93.50;;;;;;4855277;29;20219;-78
2021/03/03 00:43:00;;;;;;;16.13;11.90;;;6.30;94.00;;;;;;4866271;29;20550;-82
2021/03/03 00:45:27;;;;;;;17.35;11.07;;;6.30;93.50;;;;;;4845870;29;20252;-76
2021/03/03 00:47:57;;;;;;;15.13;10.95;;;6.20;93.90;;;;;;4846780;29;20208;-82
2021/03/03 00:50:25;;;;;;;23.52;11.30;;;6.20;93.80;;;;;;4849296;29;20207;-83
2021/03/03 00:52:54;;;;;;;17.35;11.38;;;6.00;93.90;;;;;;4850482;29;20574;-79
2021/03/03 00:55:24;;;;;;;17.98;11.25;;;5.90;94.50;;;;;;4863477;29;20199;-79
2021/03/03 00:57:51;;;;;;;16.70;10.60;;;5.80;95.10;;;;;;4866612;29;20238;-81
2021/03/03 01:00:35;;;;;;;18.35;10.20;;;5.80;95.40;;;;;;4849266;29;20216;-80
2021/03/03 01:03:04;;;;;;;13.90;10.43;;;5.80;96.00;;;;;;4842865;29;20202;-80
2021/03/03 01:05:31;;;;;;;15.13;10.35;;;5.80;96.20;;;;;;4865244;29;20203;-80
2021/03/03 01:07:58;;;;;;;19.40;11.45;;;5.80;96.20;;;;;;4866027;29;20219;-78
2021/03/03 01:10:24;;;;;;;17.80;10.15;;;5.80;96.60;;;;;;4863815;29;20191;-81
2021/03/03 01:12:53;;;;;;;14.95;10.50;;;5.80;96.80;;;;;;4851744;29;20256;-79
2021/03/03 01:15:20;;;;;;;23.77;12.13;;;5.90;96.90;;;;;;4867018;29;20214;-80
2021/03/03 01:17:52;;;;;;;14.45;10.63;;;6.00;96.60;;;;;;4860303;29;20260;-79
2021/03/03 01:20:18;;;;;;;17.23;11.02;;;6.00;96.80;;;;;;4878142;29;20216;-83
2021/03/03 01:22:45;;;;;;;18.90;11.00;;;5.90;96.90;;;;;;4867062;29;20247;-81
2021/03/03 01:25:12;;;;;;;15.25;10.90;;;5.90;97.10;;;;;;4864246;29;20215;-79
2021/03/03 01:27:38;;;;;;;16.52;10.73;;;5.90;97.20;;;;;;4872449;29;20223;-80
2021/03/03 01:30:05;;;;;;;17.63;10.80;;;5.90;97.20;;;;;;4869853;29;20258;-81
2021/03/03 01:32:31;;;;;;;15.85;10.90;;;5.90;97.20;;;;;;4868023;29;20223;-76
2021/03/03 01:34:58;;;;;;;14.10;10.85;;;5.90;97.30;;;;;;4848926;29;20243;-80
2021/03/03 01:37:25;;;;;;;24.08;11.70;;;5.90;97.20;;;;;;4875162;29;20579;-80
2021/03/03 01:39:51;;;;;;;16.70;11.18;;;6.00;97.30;;;;;;4867609;29;20569;-78
2021/03/03 01:42:17;;;;;;;17.10;11.23;;;6.00;97.30;;;;;;4860682;29;20230;-79
2021/03/03 01:44:44;;;;;;;16.30;11.77;;;6.00;97.10;;;;;;4869434;29;20647;-80
2021/03/03 01:47:10;;;;;;;20.60;10.70;;;6.00;96.90;;;;;;4864104;29;20726;-78
2021/03/03 01:49:37;;;;;;;15.80;11.15;;;5.90;97.00;;;;;;4863913;29;20197;-79
2021/03/03 01:52:03;;;;;;;16.35;9.95;;;5.90;97.20;;;;;;4851169;29;20246;-79
2021/03/03 01:54:30;;;;;;;19.50;11.15;;;5.90;97.00;;;;;;4848457;29;20214;-80
2021/03/03 01:56:58;;;;;;;15.25;11.45;;;5.80;97.20;;;;;;4871123;29;20720;-81
2021/03/03 01:59:24;;;;;;;16.23;11.23;;;5.80;97.20;;;;;;4883120;29;20176;-80
2021/03/03 02:01:51;;;;;;;15.57;11.15;;;5.70;97.20;;;;;;4851365;29;20507;-81
2021/03/03 02:04:18;;;;;;;16.98;10.57;;;5.70;97.80;;;;;;4851800;29;20222;-81
2021/03/03 02:07:11;;;;;;;18.48;10.95;;;5.60;97.60;;;;;;4870549;29;20227;-82
2021/03/03 02:10:30;;;;;;;15.32;10.13;;;5.50;98.30;;;;;;4861114;29;20218;-78
2021/03/03 02:13:06;;;;;;;16.63;11.45;;;5.40;99.00;;;;;;4846193;29;20228;-81
2021/03/03 02:15:36;;;;;;;18.50;11.35;;;5.40;99.40;;;;;;4869107;29;20195;-81
2021/03/03 02:18:03;;;;;;;17.58;11.05;;;5.50;99.30;;;;;;4869544;29;20211;-80
2021/03/03 02:20:35;;;;;;;12.07;9.05;;;5.60;99.20;;;;;;4869265;29;20219;-80
2021/03/03 02:23:23;;;;;;;18.80;11.88;;;5.60;98.80;;;;;;4849835;29;20189;-80
2021/03/03 02:25:50;;;;;;;13.60;9.15;;;5.50;99.40;;;;;;4862924;29;20227;-82
2021/03/03 02:28:17;;;;;;;16.88;10.50;;;5.50;99.30;;;;;;4848641;29;20200;-80
2021/03/03 02:30:45;;;;;;;17.40;10.55;;;5.50;99.10;;;;;;4831461;29;20234;-82
2021/03/03 02:33:16;;;;;;;17.75;10.73;;;5.50;99.30;;;;;;4846169;29;20193;-81
2021/03/03 02:35:46;;;;;;;16.23;10.52;;;5.50;99.90;;;;;;4879446;29;20270;-81
2021/03/03 02:38:13;;;;;;;14.75;11.20;;;5.50;99.50;;;;;;4868157;29;20187;-78
2021/03/03 02:40:43;;;;;;;18.38;9.60;;;5.60;99.50;;;;;;4850032;29;20215;-80
2021/03/03 02:43:18;;;;;;;17.20;10.52;;;5.60;99.30;;;;;;4848663;29;20184;-81
2021/03/03 02:45:48;;;;;;;16.50;11.80;;;5.40;99.90;;;;;;4863641;29;20258;-81
2021/03/03 02:48:16;;;;;;;16.42;11.13;;;5.50;99.90;;;;;;4848207;29;20267;-78
2021/03/03 02:50:44;;;;;;;16.20;10.68;;;5.50;99.90;;;;;;4862335;29;20196;-81
2021/03/03 02:53:12;;;;;;;17.08;10.75;;;5.60;99.80;;;;;;4864158;29;20662;-80
2021/03/03 02:55:38;;;;;;;14.95;9.00;;;5.60;99.80;;;;;;4862661;29;20203;-80
2021/03/03 02:58:05;;;;;;;20.05;11.02;;;5.70;99.60;;;;;;4869010;29;20218;-81
2021/03/03 03:00:35;;;;;;;18.80;10.43;;;5.70;99.30;;;;;;4882432;29;20226;-83
2021/03/03 03:03:25;;;;;;;14.02;10.88;;;5.60;99.60;;;;;;4865715;29;20184;-79
2021/03/03 03:06:12;;;;;;;17.75;11.52;;;5.60;99.90;;;;;;4841209;29;20227;-82
2021/03/03 03:08:40;;;;;;;18.13;9.60;;;5.60;99.90;;;;;;4871951;29;20203;-80
2021/03/03 03:11:09;;;;;;;18.98;11.07;;;5.50;99.90;;;;;;4848088;29;20220;-81
2021/03/03 03:13:38;;;;;;;16.92;11.52;;;5.50;99.90;;;;;;4861696;29;20191;-80
2021/03/03 03:16:08;;;;;;;19.48;10.93;;;5.60;99.90;;;;;;4846675;29;20311;-80
2021/03/03 03:18:40;;;;;;;17.75;11.45;;;5.70;99.90;;;;;;4859869;29;20223;-79
2021/03/03 03:21:08;;;;;;;17.67;12.15;;;5.70;99.70;;;;;;4849900;29;20235;-81
2021/03/03 03:23:36;;;;;;;14.77;10.60;;;5.70;99.80;;;;;;4851085;29;20211;-81
2021/03/03 03:26:04;;;;;;;15.57;10.05;;;5.70;99.80;;;;;;4849682;29;20235;-81
2021/03/03 03:28:31;;;;;;;17.35;10.75;;;5.80;99.60;;;;;;4876006;29;20713;-80
2021/03/03 03:30:57;;;;;;;14.80;11.30;;;5.80;99.60;;;;;;4861929;29;20644;-79
2021/03/03 03:33:24;;;;;;;22.05;11.20;;;5.80;99.50;;;;;;4871451;29;20204;-80
2021/03/03 03:35:51;;;;;;;15.60;10.98;;;5.80;99.70;;;;;;4864130;29;20318;-81
2021/03/03 03:38:18;;;;;;;13.15;9.50;;;5.70;99.90;;;;;;4865851;29;20282;-82
2021/03/03 03:40:46;;;;;;;14.75;10.57;;;5.70;99.90;;;;;;4861196;29;20272;-82
2021/03/03 03:43:14;;;;;;;13.60;9.25;;;5.70;99.90;;;;;;4865989;29;20680;-81
2021/03/03 03:45:41;;;;;;;15.57;10.70;;;5.70;99.90;;;;;;4864308;29;20244;-81
2021/03/03 03:48:08;;;;;;;15.00;11.32;;;5.70;99.90;;;;;;4863359;29;20215;-80
2021/03/03 03:50:35;;;;;;;16.98;10.10;;;5.80;99.90;;;;;;4860698;29;20234;-81
2021/03/03 03:53:02;;;;;;;20.55;10.52;;;5.80;99.90;;;;;;4850576;29;20184;-80
2021/03/03 03:55:35;;;;;;;19.20;11.38;;;5.80;99.90;;;;;;4844491;29;20260;-78
2021/03/03 03:58:02;;;;;;;13.98;9.82;;;5.90;99.90;;;;;;4863652;29;20216;-81
2021/03/03 04:00:29;;;;;;;17.17;10.55;;;5.90;99.90;;;;;;4848953;29;20308;-81
2021/03/03 04:02:57;;;;;;;16.40;9.95;;;6.00;99.60;;;;;;4858365;29;20203;-78
2021/03/03 04:05:24;;;;;;;21.65;11.50;;;6.00;99.30;;;;;;4852817;29;20179;-80
2021/03/03 04:07:51;;;;;;;17.67;10.00;;;6.00;98.80;;;;;;4881311;29;20217;-81
2021/03/03 04:10:21;;;;;;;16.77;11.30;;;6.00;99.20;;;;;;4863586;29;20458;-81
2021/03/03 04:12:48;;;;;;;16.42;10.00;;;6.00;99.00;;;;;;4864178;29;20230;-80
2021/03/03 04:15:15;;;;;;;16.85;10.05;;;6.10;98.40;;;;;;4865129;29;20278;-78
2021/03/03 04:17:42;;;;;;;17.20;10.15;;;6.10;98.50;;;;;;4864500;29;20640;-81
2021/03/03 04:20:13;;;;;;;15.73;10.52;;;6.10;98.60;;;;;;4855079;29;20222;-81
2021/03/03 04:22:39;;;;;;;14.13;10.05;;;6.10;98.80;;;;;;4865234;29;20538;-80
2021/03/03 04:25:11;;;;;;;11.70;9.55;;;6.20;98.70;;;;;;4873917;29;20212;-82
2021/03/03 04:27:38;;;;;;;22.08;10.13;;;6.30;98.30;;;;;;4847367;29;20231;-81
2021/03/03 04:30:08;;;;;;;17.55;10.38;;;6.20;98.40;;;;;;4868260;29;20195;-77
2021/03/03 04:32:34;;;;;;;18.05;10.70;;;6.20;98.30;;;;;;4866593;29;20231;-81
2021/03/03 04:35:01;;;;;;;19.98;10.73;;;6.20;98.30;;;;;;4858046;29;20231;-78
2021/03/03 04:37:28;;;;;;;15.32;11.15;;;6.10;98.50;;;;;;4866251;29;20663;-81
2021/03/03 04:39:54;;;;;;;14.75;9.93;;;6.10;98.70;;;;;;4860874;29;20218;-80
2021/03/03 04:42:20;;;;;;;15.60;8.95;;;6.20;98.70;;;;;;4847598;29;20714;-80
2021/03/03 04:44:47;;;;;;;15.43;9.88;;;6.20;98.60;;;;;;4869846;29;20201;-79
2021/03/03 04:47:13;;;;;;;13.85;9.68;;;6.20;98.50;;;;;;4863566;29;20254;-76
2021/03/03 04:49:40;;;;;;;15.43;10.20;;;6.20;98.50;;;;;;4851585;29;20216;-81
2021/03/03 04:52:06;;;;;;;17.95;9.15;;;6.20;98.60;;;;;;4841930;29;20686;-80
2021/03/03 04:54:36;;;;;;;13.23;9.48;;;6.20;98.60;;;;;;4854007;29;20295;-77
2021/03/03 04:57:04;;;;;;;12.77;9.10;;;6.20;98.90;;;;;;4846261;29;20245;-79
2021/03/03 04:59:31;;;;;;;15.60;10.30;;;6.20;98.70;;;;;;4846542;29;20624;-81
2021/03/03 05:01:58;;;;;;;13.38;9.05;;;6.20;98.60;;;;;;4847741;29;20250;-83
2021/03/03 05:04:24;;;;;;;14.93;9.63;;;6.20;98.30;;;;;;4846872;29;20195;-80
2021/03/03 05:06:51;;;;;;;14.07;10.63;;;6.20;98.40;;;;;;4861202;29;20251;-81
2021/03/03 05:09:17;;;;;;;13.55;8.95;;;6.20;98.30;;;;;;4862541;29;20794;-79
2021/03/03 05:11:44;;;;;;;15.90;10.20;;;6.10;98.60;;;;;;4861296;29;20228;-78
2021/03/03 05:14:10;;;;;;;17.98;11.57;;;6.10;98.60;;;;;;4875389;29;20205;-81
2021/03/03 05:16:37;;;;;;;15.40;9.40;;;6.10;98.50;;;;;;4874520;29;20227;-81
2021/03/03 05:19:03;;;;;;;12.70;9.30;;;6.10;98.60;;;;;;4873989;29;20207;-81
2021/03/03 05:21:30;;;;;;;15.32;10.25;;;6.10;98.70;;;;;;4849962;29;20247;-79
2021/03/03 05:23:57;;;;;;;14.15;10.20;;;6.10;98.60;;;;;;4867376;29;20210;-81
2021/03/03 05:26:23;;;;;;;17.95;10.63;;;6.00;99.00;;;;;;4853641;29;20326;-82
2021/03/03 05:28:50;;;;;;;13.23;10.48;;;6.00;98.60;;;;;;4852966;29;20404;-76
2021/03/03 05:31:16;;;;;;;18.10;10.55;;;6.00;98.70;;;;;;4850885;29;20646;-79
2021/03/03 05:33:59;;;;;;;15.63;9.00;;;6.00;98.40;;;;;;4852151;29;20199;-80
2021/03/03 05:36:25;;;;;;;15.55;10.00;;;6.00;98.50;;;;;;4837294;29;20256;-77
2021/03/03 05:38:52;;;;;;;15.35;10.88;;;6.00;98.70;;;;;;4852790;29;20222;-80
2021/03/03 05:41:25;;;;;;;13.57;10.27;;;6.00;98.70;;;;;;4844184;29;20715;-78
2021/03/03 05:43:52;;;;;;;21.25;11.32;;;6.00;98.60;;;;;;4848751;29;20237;-80
2021/03/03 05:46:19;;;;;;;15.10;9.40;;;5.90;98.70;;;;;;4850119;29;20322;-80
2021/03/03 05:48:57;;;;;;;16.65;9.80;;;6.00;99.00;;;;;;4851423;29;20219;-81
2021/03/03 05:51:25;;;;;;;12.63;9.98;;;6.00;99.00;;;;;;4848506;29;20299;-76
2021/03/03 05:53:52;;;;;;;17.20;9.52;;;6.00;98.70;;;;;;4865810;29;20724;-82
2021/03/03 05:56:23;;;;;;;14.63;10.18;;;5.90;98.80;;;;;;4851273;29;20682;-81
2021/03/03 05:58:49;;;;;;;15.98;11.30;;;6.00;98.90;;;;;;4878340;29;20228;-82
2021/03/03 06:01:16;;;;;;;17.88;10.43;;;5.90;98.90;;;;;;4868802;29;20291;-81
2021/03/03 06:03:43;;;;;;;18.02;10.85;;;6.00;98.70;;;;;;4862844;29;20205;-81
2021/03/03 06:06:11;;;;;;;17.67;10.02;;;5.90;98.70;;;;;;4849557;29;20722;-81
2021/03/03 06:08:38;;;;;;;15.18;10.75;;;5.90;99.00;;;;;;4876600;29;20204;-80
2021/03/03 06:11:05;;;;;;;21.30;10.43;;;6.00;98.80;;;;;;4856328;29;20235;-81
2021/03/03 06:13:32;;;;;;;16.58;10.40;;;5.90;98.80;;;;;;4847989;29;20214;-77
2021/03/03 06:15:59;;;;;;;17.38;10.10;;;5.90;98.90;;;;;;4842413;29;20231;-83
2021/03/03 06:18:26;;;;;;;17.02;10.40;;;5.90;99.20;;;;;;4859304;29;20205;-82
2021/03/03 06:20:56;;;;;;;16.42;9.48;;;5.90;99.00;;;;;;4832301;29;20742;-80
2021/03/03 06:23:29;;;;;;;13.98;9.45;;;5.90;99.00;;;;;;4857572;29;20210;-78
2021/03/03 06:25:55;;;;;;;14.73;10.02;;;5.80;99.10;;;;;;4865530;29;20573;-80
2021/03/03 06:28:31;;;;;;;13.40;9.68;;;5.80;99.20;;;;;;4873358;29;21049;-81
2021/03/03 06:30:57;;;;;;;13.55;9.70;;;5.80;99.20;;;;;;4867134;29;20234;-79
2021/03/03 06:33:27;;;;;;;16.83;10.60;;;5.80;99.20;;;;;;4857050;29;20230;-80
2021/03/03 06:35:54;;;;;;;13.98;10.00;;;5.80;99.00;;;;;;4846902;29;20291;-76
2021/03/03 06:38:31;;;;;;;13.32;10.18;;;5.80;99.20;;;;;;4850106;29;20227;-81
2021/03/03 06:41:06;;;;;;;14.63;9.38;;;5.70;99.20;;;;;;4859083;29;20239;-80
2021/03/03 06:43:32;;;;;;;16.05;10.20;;;5.80;99.30;;;;;;4856299;29;20218;-81
2021/03/03 06:46:17;;;;;;;11.98;8.95;;;5.80;98.90;;;;;;4881504;29;20226;-80
2021/03/03 06:48:45;;;;;;;13.93;9.57;;;5.70;99.00;;;;;;4851548;29;20196;-81
2021/03/03 06:51:34;;;;;;;21.63;11.02;;;5.70;99.10;;;;;;4846411;29;20232;-80
2021/03/03 06:54:05;;;;;;;14.85;9.10;;;5.70;99.50;;;;;;4864397;29;20213;-80
2021/03/03 06:56:39;;;;;;;13.40;9.15;;;5.70;99.30;;;;;;4852571;29;20235;-79
2021/03/03 06:59:16;;;;;;;11.82;10.23;;;5.70;99.20;;;;;;4865368;29;20262;-81
2021/03/03 07:01:43;;;;;;;12.60;9.00;;;5.70;99.60;;;;;;4867762;29;20237;-78
2021/03/03 07:04:32;;;;;;;15.73;10.05;;;5.70;99.60;;;;;;4842704;29;20216;-81
2021/03/03 07:07:10;;;;;;;10.30;8.90;;;5.70;99.40;;;;;;4830399;29;20607;-77
2021/03/03 07:09:46;;;;;;;19.73;10.13;;;5.70;99.50;;;;;;4856182;29;20206;-77
2021/03/03 07:12:14;;;;;;;13.95;8.52;;;5.70;99.90;;;;;;4848909;29;20251;-81
2021/03/03 07:14:43;;;;;;;14.80;9.52;;;5.80;99.70;;;;;;4849871;29;20184;-78
2021/03/03 07:17:11;;;;;;;15.13;9.55;;;5.70;99.70;;;;;;4847406;29;20244;-78
2021/03/03 07:19:40;;;;;;;15.32;11.75;;;5.80;99.80;;;;;;4846498;29;20201;-80
2021/03/03 07:22:22;;;;;;;14.70;11.43;;;5.80;99.90;;;;;;4830612;29;20233;-81
2021/03/03 07:24:51;;;;;;;13.82;9.52;;;5.90;99.90;;;;;;4864467;29;20264;-77
2021/03/03 07:27:19;;;;;;;17.48;11.10;;;5.90;99.90;;;;;;4848723;29;20355;-77
2021/03/03 07:29:48;;;;;;;17.95;11.60;;;5.90;99.90;;;;;;4880550;29;20658;-80
2021/03/03 07:32:16;;;;;;;18.42;11.32;;;6.00;99.90;;;;;;4864561;29;20298;-79
2021/03/03 07:34:46;;;;;;;15.75;10.80;;;6.10;99.90;;;;;;4845765;29;20272;-77
2021/03/03 07:37:15;;;;;;;17.50;10.23;;;6.20;99.90;;;;;;4856149;29;20235;-80
2021/03/03 07:39:46;;;;;;;16.63;10.52;;;6.30;99.90;;;;;;4865354;29;20191;-80
2021/03/03 07:42:19;;;;;;;14.80;10.27;;;6.40;99.90;;;;;;4851365;29;20313;-81
2021/03/03 07:44:47;;;;;;;13.90;9.23;;;6.40;99.90;;;;;;4865986;29;20187;-77
2021/03/03 07:47:15;;;;;;;13.02;9.35;;;6.50;99.90;;;;;;4860530;29;20266;-81
2021/03/03 07:49:47;;;;;;;16.52;10.40;;;6.60;99.90;;;;;;4845312;29;20208;-80
2021/03/03 07:52:14;;;;;;;13.63;10.00;;;6.70;99.90;;;;;;4846371;29;20220;-82
2021/03/03 07:54:41;;;;;;;18.17;10.98;;;6.70;99.90;;;;;;4848521;29;20198;-79
2021/03/03 07:57:09;;;;;;;14.82;9.73;;;6.80;99.90;;;;;;4848951;29;20262;-81
2021/03/03 07:59:36;;;;;;;16.33;11.35;;;6.90;99.90;;;;;;4865256;29;20195;-81
2021/03/03 08:02:03;;;;;;;19.27;11.45;;;7.00;99.90;;;;;;4861850;29;20230;-81
2021/03/03 08:04:36;;;;;;;17.30;11.02;;;7.10;99.90;;;;;;4868041;29;20268;-82
2021/03/03 08:07:18;;;;;;;15.80;10.30;;;7.20;99.90;;;;;;4862257;29;20246;-81
2021/03/03 08:10:15;;;;;;;22.13;12.80;;;7.20;99.90;;;;;;4828077;29;20228;-80
2021/03/03 08:12:57;;;;;;;18.27;11.25;;;7.30;99.90;;;;;;4859891;29;20314;-77
2021/03/03 08:15:48;;;;;;;20.80;12.00;;;7.40;99.90;;;;;;4856120;29;20199;-80
2021/03/03 08:18:21;;;;;;;19.15;13.18;;;7.50;99.90;;;;;;4861623;29;20219;-80
2021/03/03 08:20:51;;;;;;;19.08;13.05;;;7.60;99.90;;;;;;4846580;29;20770;-80
2021/03/03 08:23:38;;;;;;;16.08;12.27;;;7.80;99.90;;;;;;4849903;29;20567;-79
2021/03/03 08:26:06;;;;;;;17.88;11.60;;;8.00;99.90;;;;;;4859709;29;20594;-77
2021/03/03 08:28:34;;;;;;;17.20;11.85;;;8.00;99.90;;;;;;4874960;29;20674;-80
2021/03/03 08:31:07;;;;;;;25.55;14.25;;;8.10;99.90;;;;;;4862660;29;20243;-79
2021/03/03 08:33:41;;;;;;;21.15;13.13;;;8.10;99.90;;;;;;4861047;29;20202;-81
2021/03/03 08:36:24;;;;;;;17.20;11.82;;;8.20;99.90;;;;;;4847572;29;20235;-79
2021/03/03 08:38:53;;;;;;;20.17;12.80;;;8.30;99.90;;;;;;4848607;29;20264;-78
2021/03/03 08:41:26;;;;;;;20.73;12.43;;;8.40;99.90;;;;;;4839673;29;20265;-80
2021/03/03 08:44:03;;;;;;;19.88;13.45;;;8.50;99.90;;;;;;4861539;29;20227;-79
2021/03/03 08:46:29;;;;;;;23.00;12.52;;;8.60;99.90;;;;;;4869811;29;20290;-80
2021/03/03 08:48:57;;;;;;;17.30;12.32;;;8.90;99.90;;;;;;4882268;29;20194;-79
2021/03/03 08:51:36;;;;;;;16.08;11.60;;;9.10;99.90;;;;;;4876030;29;20770;-80
2021/03/03 08:54:06;;;;;;;22.50;13.55;;;9.30;99.90;;;;;;4901142;29;20430;-81
2021/03/03 08:56:45;;;;;;;19.10;12.93;;;9.40;99.90;;;;;;4876303;29;20265;-78
2021/03/03 08:59:13;;;;;;;19.45;12.38;;;9.50;99.90;;;;;;4870459;29;20191;-80
2021/03/03 09:02:17;;;;;;;20.90;13.77;;;9.50;99.90;;;;;;4888425;29;20309;-79
2021/03/03 09:04:52;;;;;;;20.90;13.68;;;9.60;99.90;;;;;;4873257;29;20492;-81
2021/03/03 09:07:27;;;;;;;16.80;13.10;;;9.50;99.90;;;;;;4888337;29;20254;-81
2021/03/03 09:09:54;;;;;;;23.90;14.67;;;9.70;99.90;;;;;;4872840;29;20424;-80
2021/03/03 09:12:29;;;;;;;19.10;14.50;;;9.90;99.90;;;;;;4883167;29;20483;-79
2021/03/03 09:14:59;;;;;;;29.30;15.13;;;9.90;99.90;;;;;;4887767;29;21001;-79
2021/03/03 09:17:32;;;;;;;23.87;15.33;;;9.90;99.90;;;;;;4884372;29;20481;-76
2021/03/03 09:20:26;;;;;;;22.83;14.90;;;10.10;99.40;;;;;;4868025;29;20452;-80
2021/03/03 09:22:53;;;;;;;25.03;15.33;;;10.10;98.30;;;;;;4884628;29;20463;-80
2021/03/03 09:25:24;;;;;;;21.40;14.70;;;10.30;97.60;;;;;;4892336;29;20843;-80
2021/03/03 09:27:55;;;;;;;27.67;16.40;;;10.30;96.90;;;;;;4896198;29;20511;-80
2021/03/03 09:30:24;;;;;;;20.37;14.90;;;10.40;96.50;;;;;;4884630;29;20454;-80
2021/03/03 09:32:51;;;;;;;23.20;15.37;;;10.40;96.30;;;;;;4883078;29;20467;-80
2021/03/03 09:35:33;;;;;;;28.07;15.60;;;10.60;95.70;;;;;;4882417;29;20487;-79
2021/03/03 09:38:10;;;;;;;22.53;15.10;;;10.70;95.70;;;;;;4876820;29;20477;-80
2021/03/03 09:40:37;;;;;;;22.37;15.73;;;10.80;95.50;;;;;;4899756;29;20469;-79
2021/03/03 09:43:04;;;;;;;22.33;16.50;;;11.00;94.20;;;;;;4873841;29;20413;-80
2021/03/03 09:45:30;;;;;;;25.43;16.43;;;11.10;94.30;;;;;;4874007;29;20425;-78
2021/03/03 09:47:58;;;;;;;23.30;17.07;;;11.30;94.00;;;;;;4872749;29;21067;-80
2021/03/03 09:50:28;;;;;;;22.50;15.30;;;11.40;93.90;;;;;;4870747;29;20455;-77
2021/03/03 09:52:56;;;;;;;23.07;15.80;;;;;;;;;;4891958;29;20499;-80
2021/03/03 09:55:33;;;;;;;22.83;16.77;;;11.70;92.80;;;;;;4885957;29;20454;-80
2021/03/03 09:58:01;;;;;;;21.27;15.17;;;11.90;93.00;;;;;;4888377;29;20490;-78
2021/03/03 10:00:30;;;;;;;24.97;15.83;;;12.00;92.00;;;;;;4888199;29;20518;-81
2021/03/03 10:03:05;;;;;;;24.07;16.37;;;12.20;90.40;;;;;;4890810;29;20530;-79
2021/03/03 10:05:34;;;;;;;23.27;16.10;;;12.40;90.50;;;;;;4871491;29;20432;-80
2021/03/03 10:08:14;;;;;;;28.40;18.07;;;12.50;89.60;;;;;;4870108;29;20448;-79
2021/03/03 10:10:49;;;;;;;19.70;15.33;;;12.70;87.30;;;;;;4866103;29;20824;-79
2021/03/03 10:13:23;;;;;;;20.93;15.70;;;12.80;83.90;;;;;;4888958;29;20835;-80
2021/03/03 10:15:55;;;;;;;26.87;17.73;;;12.90;83.10;;;;;;4884458;29;20462;-79
2021/03/03 10:18:21;;;;;;;24.00;15.80;;;13.00;82.60;;;;;;4886158;29;20935;-79
2021/03/03 10:20:59;;;;;;;25.13;15.93;;;13.10;80.80;;;;;;4884435;29;20690;-80
2021/03/03 10:23:28;;;;;;;25.57;16.47;;;13.00;82.70;;;;;;4871457;29;20457;-80
2021/03/03 10:26:06;;;;;;;20.17;16.67;;;13.20;79.30;;;;;;4873654;29;20477;-80
2021/03/03 10:28:33;;;;;;;23.57;16.43;;;13.20;77.30;;;;;;4852843;29;20497;-79
2021/03/03 10:31:03;;;;;;;20.13;16.20;;;13.20;77.90;;;;;;4865596;29;20479;-80
2021/03/03 10:33:38;;;;;;;26.60;17.30;;;13.20;77.10;;;;;;4867569;29;20516;-79
2021/03/03 10:36:08;;;;;;;27.83;17.03;;;13.30;76.30;;;;;;4877806;29;20536;-81
2021/03/03 10:38:43;;;;;;;22.40;15.40;;;13.30;76.50;;;;;;4852371;29;20425;-81
2021/03/03 10:41:24;;;;;;;24.53;15.77;;;13.40;75.20;;;;;;4844356;29;20477;-78
2021/03/03 10:43:51;;;;;;;25.10;16.80;;;13.30;75.30;;;;;;4831249;29;20505;-79
2021/03/03 10:46:21;;;;;;;27.27;17.17;;;13.40;74.70;;;;;;4861284;29;20553;-80
2021/03/03 10:48:51;;;;;;;29.20;16.47;;;13.20;74.90;;;;;;4845456;29;20509;-81
2021/03/03 10:51:20;;;;;;;23.43;16.10;;;13.20;74.50;;;;;;4868544;29;20505;-79
2021/03/03 10:53:54;;;;;;;29.73;16.00;;;13.40;74.20;;;;;;4866174;29;20531;-79
2021/03/03 10:56:32;;;;;;;22.27;14.73;;;13.50;73.00;;;;;;4859261;29;20489;-79
2021/03/03 10:59:24;;;;;;;26.13;15.83;;;13.50;71.20;;;;;;4863979;29;20498;-78
2021/03/03 11:02:01;;;;;;;24.17;15.67;;;13.40;73.90;;;;;;4839665;29;20477;-77
2021/03/03 11:04:43;;;;;;;28.63;16.73;;;13.40;74.70;;;;;;4833007;29;20602;-78
2021/03/03 11:07:12;;;;;;;25.33;15.47;;;13.40;74.60;;;;;;4852851;29;20479;-76
2021/03/03 11:09:39;;;;;;;28.20;16.43;;;13.30;74.30;;;;;;4860222;29;20451;-77
2021/03/03 11:12:06;;;;;;;27.10;15.63;;;13.30;74.00;;;;;;4858509;29;20472;-79
2021/03/03 11:14:34;;;;;;;35.07;16.93;;;13.40;74.60;;;;;;4852115;29;20443;-77
2021/03/03 11:17:03;;;;;;;27.07;15.23;;;13.40;74.80;;;;;;4876385;29;20909;-77
2021/03/03 11:19:30;;;;;;;21.47;14.53;;;13.40;73.60;;;;;;4869011;29;20523;-78
2021/03/03 11:22:01;;;;;;;21.93;15.37;;;13.40;72.50;;;;;;4874197;29;20481;-77
2021/03/03 11:24:28;;;;;;;20.80;14.60;;;13.30;73.50;;;;;;4857557;29;20558;-77
2021/03/03 11:26:54;;;;;;;26.73;14.63;;;13.40;73.70;;;;;;4844288;29;20469;-77
2021/03/03 11:29:20;;;;;;;30.20;15.33;;;13.40;72.30;;;;;;4848857;29;20494;-79
2021/03/03 11:31:47;;;;;;;20.07;14.67;;;13.60;71.50;;;;;;4862437;29;20503;-79
2021/03/03 11:34:14;;;;;;;19.50;13.97;;;13.50;72.40;;;;;;4859051;29;20456;-80
2021/03/03 11:36:44;;;;;;;28.47;14.03;;;13.40;71.00;;;;;;4863957;29;20854;-80
2021/03/03 11:39:11;;;;;;;25.70;15.00;;;13.50;72.00;;;;;;4879870;29;20468;-79
2021/03/03 11:41:38;;;;;;;21.03;15.13;;;13.50;73.40;;;;;;4863000;29;20472;-80
2021/03/03 11:44:06;;;;;;;25.87;14.27;;;13.40;73.40;;;;;;4859981;29;20541;-77
2021/03/03 11:46:33;;;;;;;23.10;14.40;;;13.50;71.80;;;;;;4863265;29;20561;-78
2021/03/03 11:49:00;;;;;;;26.27;14.97;;;13.60;72.40;;;;;;4861424;29;20440;-76
2021/03/03 11:51:26;;;;;;;24.57;16.60;;;13.70;71.20;;;;;;4859554;29;20479;-78
2021/03/03 11:54:12;;;;;;;23.27;16.60;;;13.70;71.90;;;;;;4862568;29;20455;-80
2021/03/03 11:56:40;;;;;;;24.27;16.97;;;13.80;72.80;;;;;;4862660;29;20492;-78
2021/03/03 11:59:07;;;;;;;25.43;16.00;;;13.80;74.00;;;;;;4843616;29;20444;-78
2021/03/03 12:01:33;;;;;;;23.00;16.03;;;13.80;75.00;;;;;;4844765;29;20477;-80
2021/03/03 12:04:00;;;;;;;25.90;15.97;;;13.80;72.90;;;;;;4859247;29;20907;-77
2021/03/03 12:06:27;;;;;;;24.27;16.47;;;13.90;72.10;;;;;;4843730;29;20843;-77
2021/03/03 12:08:54;;;;;;;27.97;15.97;;;13.90;72.30;;;;;;4856617;29;20441;-77
2021/03/03 12:11:20;;;;;;;30.47;16.90;;;13.90;72.20;;;;;;4849886;29;20563;-78
2021/03/03 12:13:46;;;;;;;28.63;17.73;;;13.90;72.90;;;;;;4856722;29;20943;-76
2021/03/03 12:16:13;;;;;;;26.83;15.90;;;13.90;72.50;;;;;;4877438;29;20483;-77
2021/03/03 12:18:39;;;;;;;26.13;17.23;;;14.00;70.90;;;;;;4849325;29;20456;-76
2021/03/03 12:21:06;;;;;;;30.00;15.10;;;14.00;70.30;;;;;;4862032;29;20483;-79
2021/03/03 12:23:33;;;;;;;25.80;16.00;;;14.20;69.10;;;;;;4846396;29;20816;-80
2021/03/03 12:26:00;;;;;;;28.47;18.03;;;14.20;70.30;;;;;;4861432;29;20476;-77
2021/03/03 12:28:27;;;;;;;30.33;16.77;;;14.10;69.80;;;;;;4860762;29;20528;-78
2021/03/03 12:30:53;;;;;;;31.20;17.57;;;14.10;69.60;;;;;;4843355;29;20573;-78
2021/03/03 12:33:20;;;;;;;30.07;16.60;;;14.00;69.80;;;;;;4842797;29;20461;-77
2021/03/03 12:35:47;;;;;;;28.23;16.67;;;14.00;70.20;;;;;;4843305;29;20485;-76
2021/03/03 12:38:14;;;;;;;31.00;17.60;;;14.10;70.80;;;;;;4858771;29;20426;-77
2021/03/03 12:40:42;;;;;;;27.50;16.90;;;14.10;72.20;;;;;;4857479;29;20445;-79
2021/03/03 12:43:08;;;;;;;25.50;16.80;;;14.10;72.70;;;;;;4863855;29;20437;-78
2021/03/03 12:45:34;;;;;;;32.00;17.30;;;14.20;73.10;;;;;;4846297;29;20561;-76
2021/03/03 12:48:02;;;;;;;28.17;17.90;;;14.30;71.10;;;;;;4844855;29;20982;-76
2021/03/03 12:50:28;;;;;;;24.93;18.07;;;14.40;72.30;;;;;;4851203;29;20436;-75